Estación Meteorológica Peña el Pijo (Robertgarden) [ 12/11/19 23:05:27 CET ]

Fecha Hora Presion(HPa) Temp (°C) Humedad % Rocio (°C) Viento ( m/s) Direccion Lluvia 1Hora(mm) Lluvia 24H(mm) LLuvia Total(mm)
2019-Nov-28 01:01:42 1006.000 9.0 72 4.2 0.5 NNW     37.81
2019-Nov-28 02:02:11 1005.600 8.6 72 3.8         37.81
2019-Nov-28 03:01:42 1005.900 8.5 72 3.7         37.81
2019-Nov-28 04:01:45 1005.700 8.8 72 4.0         37.81
2019-Nov-28 05:01:49 1005.600 8.8 72 4.0 2.4 NNW     37.81
2019-Nov-28 06:01:44 1005.800 8.4 73 3.8         37.81
2019-Nov-28 07:01:52 1006.400 7.8 74 3.5         37.81
2019-Nov-28 08:01:40 1007.000 7.4 75 3.2         37.81
2019-Nov-28 09:01:34 1007.700 7.3 75 3.1         37.81
2019-Nov-28 10:01:53 1007.500 11.4 67 5.5 2.0 NE     37.81
2019-Nov-28 11:01:42 1008.300 14.5 59 6.6         37.81
2019-Nov-28 12:01:46 1008.200 16.6 53 6.9 2.2 NW     37.81
2019-Nov-28 13:01:37 1007.500 18.1 48 6.8         37.81
2019-Nov-28 14:01:52 1006.500 18.4 47 6.8 0.1 S     37.81
2019-Nov-28 15:01:56 1006.200 18.3 48 7.0         37.81
2019-Nov-28 16:01:43 1006.200 17.0 47 5.5         37.81
2019-Nov-28 17:01:43 1006.600 14.4 52 4.7         37.81
2019-Nov-28 18:01:45 1006.800 12.5 59 4.7         37.81
2019-Nov-28 19:02:02 1007.200 10.7 66 4.6         37.81
2019-Nov-28 20:02:03 1007.400 9.0 71 4.0         37.81
2019-Nov-28 21:01:50 1007.900 7.9 75 3.8 1.5 W     37.81
2019-Nov-28 22:01:51 1009.000 6.5 75 2.4         37.81
2019-Nov-28 23:01:58 1009.200 5.4 78 1.8         37.81

Temperatura Máxima:18°    Temperatura Mínima:
Presión Máxima:1009.200 Hpa    Presión Mínima:1005.600 Hpa


Volver